Time;durP1;ratioP1;P1;durP2;ratioP2;P2;SDS_P1;SDS_P2;PMS_P1;PMS_P2;Temp;Humidity;BMP_temperature;BMP_pressure;BME280_temperature;BME280_humidity;BME280_pressure;Samples;Min_cycle;Max_cycle;Signal;HPM_P1;HPM_P2
2023/05/30 00:01:16;;;;;;;12.57;7.33;;;;;;;14.53;100.00;95032.56;5034212;28;20236;-74
2023/05/30 00:03:43;;;;;;;13.77;7.30;;;;;;;14.63;100.00;95024.94;5037623;28;20299;-76
2023/05/30 00:06:08;;;;;;;14.77;7.30;;;;;;;14.66;100.00;95027.16;5036444;28;20286;-74
2023/05/30 00:08:34;;;;;;;11.23;6.90;;;;;;;14.61;100.00;95033.09;5038162;28;20229;-73
2023/05/30 00:11:00;;;;;;;14.20;6.80;;;;;;;14.52;100.00;95028.34;5054853;28;20229;-75
2023/05/30 00:13:28;;;;;;;12.47;6.80;;;;;;;14.35;100.00;95027.31;5047475;28;20226;-75
2023/05/30 00:15:54;;;;;;;13.23;7.30;;;;;;;14.18;100.00;95032.31;5054510;28;20224;-75
2023/05/30 00:18:22;;;;;;;11.53;7.37;;;;;;;14.17;100.00;95034.16;5026142;28;20237;-76
2023/05/30 00:20:48;;;;;;;14.57;7.40;;;;;;;14.08;100.00;95038.09;5021556;28;20229;-73
2023/05/30 00:23:14;;;;;;;12.73;7.17;;;;;;;14.13;100.00;95038.25;5027848;28;20837;-75
2023/05/30 00:25:40;;;;;;;15.40;7.33;;;;;;;14.26;100.00;95036.50;5054315;28;20303;-75
2023/05/30 00:28:07;;;;;;;13.40;7.30;;;;;;;14.33;100.00;95043.31;5041903;28;20225;-75
2023/05/30 00:30:36;;;;;;;13.87;7.13;;;;;;;14.33;100.00;95038.03;5047351;28;20257;-75
2023/05/30 00:33:01;;;;;;;13.37;7.53;;;;;;;14.37;100.00;95041.88;5037031;28;20231;-74
2023/05/30 00:35:27;;;;;;;14.10;7.63;;;;;;;14.48;100.00;95046.41;5039688;28;20252;-74
2023/05/30 00:37:52;;;;;;;13.37;7.27;;;;;;;14.52;100.00;95038.88;5052954;28;20237;-75
2023/05/30 00:40:17;;;;;;;14.50;7.47;;;;;;;14.19;100.00;95047.88;5034276;28;20256;-75
2023/05/30 00:42:43;;;;;;;14.13;7.57;;;;;;;14.11;100.00;95047.38;5036873;28;20344;-74
2023/05/30 00:45:09;;;;;;;17.13;7.70;;;;;;;14.20;100.00;95043.44;5039595;28;20224;-74
2023/05/30 00:47:35;;;;;;;15.80;7.70;;;;;;;14.29;100.00;95043.94;5056801;28;20233;-75
2023/05/30 00:50:00;;;;;;;12.20;7.20;;;;;;;14.18;100.00;95053.38;5035439;28;20249;-74
2023/05/30 00:52:26;;;;;;;13.23;7.57;;;;;;;14.05;100.00;95056.94;5049386;28;20232;-75
2023/05/30 00:54:51;;;;;;;14.27;7.50;;;;;;;14.07;100.00;95051.44;5028461;28;20248;-76
2023/05/30 00:57:16;;;;;;;16.50;7.40;;;;;;;14.03;100.00;95051.09;5028366;28;20232;-74
2023/05/30 00:59:43;;;;;;;12.93;7.23;;;;;;;14.02;100.00;95048.66;5052287;28;20229;-74
2023/05/30 01:02:08;;;;;;;14.13;7.80;;;;;;;14.16;100.00;95047.53;5029569;28;20800;-75
2023/05/30 01:04:34;;;;;;;16.47;7.67;;;;;;;13.99;100.00;95055.19;5038213;28;20233;-76
2023/05/30 01:06:59;;;;;;;13.23;7.43;;;;;;;13.96;100.00;95045.09;5056249;28;20229;-75
2023/05/30 01:09:25;;;;;;;14.07;7.10;;;;;;;14.13;100.00;95047.97;5032619;28;20275;-74
2023/05/30 01:12:02;;;;;;;12.77;7.13;;;;;;;14.17;100.00;95044.69;5036082;28;20221;-75
2023/05/30 01:14:45;;;;;;;12.83;7.17;;;;;;;14.31;100.00;95048.00;5027313;28;20667;-74
2023/05/30 01:17:26;;;;;;;13.77;7.17;;;;;;;14.06;100.00;95045.41;5046203;28;20328;-74
2023/05/30 01:20:04;;;;;;;15.07;7.37;;;;;;;13.89;100.00;95040.91;5042001;28;20232;-74
2023/05/30 01:22:51;;;;;;;12.63;7.37;;;;;;;13.81;100.00;95047.25;5051489;28;20225;-75
2023/05/30 01:25:35;;;;;;;13.83;7.33;;;;;;;13.94;100.00;95041.06;5055060;28;20323;-73
2023/05/30 01:28:09;;;;;;;13.07;6.97;;;;;;;14.06;100.00;95037.50;5045644;28;20225;-75
2023/05/30 01:30:40;;;;;;;14.90;8.00;;;;;;;14.16;100.00;95037.78;5043215;28;20269;-75
2023/05/30 01:33:06;;;;;;;11.07;7.23;;;;;;;13.99;100.00;95038.59;5035418;28;20237;-75
2023/05/30 01:35:32;;;;;;;13.13;6.87;;;;;;;14.03;100.00;95034.50;5045123;28;20309;-75
2023/05/30 01:37:57;;;;;;;13.97;7.40;;;;;;;13.99;100.00;95041.22;5034391;28;20757;-75
2023/05/30 01:40:24;;;;;;;12.53;6.90;;;;;;;13.91;100.00;95036.22;5052978;28;20905;-75
2023/05/30 01:42:52;;;;;;;11.63;7.20;;;;;;;13.81;100.00;95031.47;5052571;28;20225;-74
2023/05/30 01:45:25;;;;;;;14.57;7.00;;;;;;;13.81;100.00;95031.47;5015721;28;20241;-75
2023/05/30 01:47:52;;;;;;;11.43;7.40;;;;;;;13.84;100.00;95035.50;5050722;28;20240;-74
2023/05/30 01:50:20;;;;;;;14.73;7.03;;;;;;;13.72;100.00;95037.22;5047564;28;20226;-75
2023/05/30 01:52:50;;;;;;;13.63;7.43;;;;;;;13.68;100.00;95034.22;5037449;28;20224;-76
2023/05/30 01:55:16;;;;;;;10.00;6.60;;;;;;;13.73;100.00;95033.56;5060738;28;20787;-76
2023/05/30 01:57:46;;;;;;;12.00;6.70;;;;;;;13.72;100.00;95026.69;5033968;28;20241;-75
2023/05/30 02:00:14;;;;;;;12.80;6.83;;;;;;;13.85;100.00;95037.09;5017533;28;20221;-75
2023/05/30 02:02:39;;;;;;;14.03;6.73;;;;;;;13.77;100.00;95040.00;5035940;28;20598;-74
2023/05/30 02:05:05;;;;;;;12.90;6.80;;;;;;;13.90;100.00;95045.16;5037216;28;20221;-76
2023/05/30 02:07:31;;;;;;;10.90;6.67;;;;;;;13.77;100.00;95045.25;5031728;28;20251;-74
2023/05/30 02:09:56;;;;;;;13.27;6.63;;;;;;;13.69;100.00;95053.41;5050914;28;20300;-75
2023/05/30 02:12:22;;;;;;;12.17;6.60;;;;;;;13.74;100.00;95043.88;5050186;28;20753;-73
2023/05/30 02:14:47;;;;;;;12.10;6.80;;;;;;;13.69;100.00;95048.97;5034745;28;20252;-74
2023/05/30 02:17:13;;;;;;;12.27;6.90;;;;;;;13.71;100.00;95051.41;5048279;28;20229;-75
2023/05/30 02:19:39;;;;;;;11.73;6.73;;;;;;;13.91;100.00;95052.03;5028020;28;20233;-74
2023/05/30 02:22:06;;;;;;;14.17;6.97;;;;;;;13.88;100.00;95045.34;5054284;28;20282;-74
2023/05/30 02:24:31;;;;;;;13.40;6.83;;;;;;;13.92;100.00;95045.75;5035220;28;20617;-74
2023/05/30 02:26:57;;;;;;;12.93;6.73;;;;;;;13.81;100.00;95052.50;5033820;28;20643;-75
2023/05/30 02:29:22;;;;;;;11.70;6.90;;;;;;;13.71;100.00;95052.19;5055827;28;20252;-75
2023/05/30 02:31:48;;;;;;;17.47;6.60;;;;;;;13.74;100.00;95056.22;5030887;28;20236;-75
2023/05/30 02:34:13;;;;;;;13.37;6.70;;;;;;;13.87;100.00;95056.09;5027122;28;20221;-75
2023/05/30 02:36:39;;;;;;;14.50;6.80;;;;;;;13.82;100.00;95053.31;5047635;28;20825;-75
2023/05/30 02:39:08;;;;;;;13.87;6.50;;;;;;;13.68;100.00;95057.09;5051722;28;20790;-74
2023/05/30 02:41:34;;;;;;;12.10;6.43;;;;;;;13.72;100.00;95061.69;5032186;28;20237;-75
2023/05/30 02:44:00;;;;;;;12.23;6.40;;;;;;;13.60;100.00;95054.72;5018250;28;20249;-74
2023/05/30 02:46:25;;;;;;;11.30;6.53;;;;;;;13.76;100.00;95046.28;5048975;28;20233;-75
2023/05/30 02:48:50;;;;;;;9.90;6.10;;;;;;;13.59;100.00;95047.84;5051678;28;20245;-74
2023/05/30 02:51:16;;;;;;;12.50;5.90;;;;;;;13.61;100.00;95048.44;5050014;28;20229;-74
2023/05/30 02:53:41;;;;;;;10.27;5.93;;;;;;;13.58;100.00;95048.88;5034521;28;20240;-74
2023/05/30 02:56:07;;;;;;;10.33;6.70;;;;;;;13.41;100.00;95041.50;5034003;28;20259;-74
2023/05/30 02:58:32;;;;;;;11.43;6.27;;;;;;;13.41;100.00;95051.22;5046814;28;20217;-74
2023/05/30 03:00:57;;;;;;;13.53;6.53;;;;;;;13.46;100.00;95048.75;5050001;28;20233;-73
2023/05/30 03:03:24;;;;;;;11.57;6.17;;;;;;;13.52;100.00;95046.06;5031234;28;20233;-73
2023/05/30 03:05:51;;;;;;;13.27;6.07;;;;;;;13.54;100.00;95040.63;5050944;28;20229;-74
2023/05/30 03:08:16;;;;;;;12.07;6.60;;;;;;;13.52;100.00;95049.75;5049277;28;20303;-72
2023/05/30 03:10:41;;;;;;;10.87;6.50;;;;;;;13.62;100.00;95047.41;5049547;28;20233;-74
2023/05/30 03:13:08;;;;;;;16.13;6.57;;;;;;;13.62;100.00;95048.22;5032705;28;20225;-72
2023/05/30 03:15:33;;;;;;;12.27;6.43;;;;;;;13.52;100.00;95043.44;5027188;28;20221;-73
2023/05/30 03:17:59;;;;;;;12.73;6.40;;;;;;;13.44;100.00;95043.72;5051476;28;20266;-71
2023/05/30 03:20:25;;;;;;;14.77;6.50;;;;;;;13.38;100.00;95044.56;5026687;28;20221;-72
2023/05/30 03:22:50;;;;;;;12.10;6.33;;;;;;;13.49;100.00;95050.97;5034653;28;20222;-72
2023/05/30 03:25:15;;;;;;;10.90;6.20;;;;;;;13.45;100.00;95040.06;5037113;28;20225;-73
2023/05/30 03:27:41;;;;;;;12.30;6.30;;;;;;;13.19;100.00;95039.44;5051674;28;20262;-73
2023/05/30 03:30:07;;;;;;;11.93;6.17;;;;;;;13.17;100.00;95044.09;5025455;28;20308;-73
2023/05/30 03:32:32;;;;;;;11.33;5.93;;;;;;;13.32;100.00;95053.31;5051430;28;20235;-73
2023/05/30 03:34:58;;;;;;;10.43;6.40;;;;;;;13.31;100.00;95056.94;5048635;28;20728;-73
2023/05/30 03:37:24;;;;;;;12.93;6.30;;;;;;;13.28;100.00;95059.19;5026221;28;20228;-73
2023/05/30 03:39:49;;;;;;;17.07;6.20;;;;;;;13.29;100.00;95060.81;5043854;28;20228;-72
2023/05/30 03:42:15;;;;;;;13.80;6.60;;;;;;;13.24;100.00;95064.06;5038896;28;20241;-73
2023/05/30 03:44:40;;;;;;;14.17;6.40;;;;;;;13.33;100.00;95061.97;5026396;28;20229;-73
2023/05/30 03:47:06;;;;;;;13.70;6.50;;;;;;;13.44;100.00;95063.94;5026088;28;20237;-73
2023/05/30 03:49:31;;;;;;;15.60;6.70;;;;;;;13.39;100.00;95061.16;5049809;28;20221;-74
2023/05/30 03:51:57;;;;;;;15.27;6.73;;;;;;;13.49;100.00;95066.75;5024262;28;20237;-73
2023/05/30 03:54:22;;;;;;;13.53;6.50;;;;;;;13.47;100.00;95069.56;5048259;28;20232;-72
2023/05/30 03:56:47;;;;;;;14.33;6.47;;;;;;;13.45;100.00;95074.25;5059492;28;20236;-72
2023/05/30 03:59:14;;;;;;;14.70;6.50;;;;;;;13.57;100.00;95076.16;5043122;28;20225;-72
2023/05/30 04:01:39;;;;;;;12.60;6.80;;;;;;;13.71;100.00;95082.97;5025309;28;20271;-73
2023/05/30 04:04:05;;;;;;;14.30;7.00;;;;;;;13.84;100.00;95074.94;5018155;28;20251;-72
2023/05/30 04:06:30;;;;;;;16.33;7.00;;;;;;;13.72;100.00;95084.56;5028883;28;20317;-72
2023/05/30 04:08:56;;;;;;;16.07;7.13;;;;;;;13.37;100.00;95084.22;5032720;28;20225;-71
2023/05/30 04:11:21;;;;;;;15.50;7.23;;;;;;;13.40;100.00;95089.84;5031149;28;20892;-72
2023/05/30 04:13:47;;;;;;;18.47;7.17;;;;;;;13.70;100.00;95092.69;5032634;28;20221;-73
2023/05/30 04:16:12;;;;;;;15.67;7.10;;;;;;;13.76;100.00;95093.63;5041669;28;20225;-73
2023/05/30 04:18:43;;;;;;;23.20;7.17;;;;;;;13.98;100.00;95097.50;5038610;28;20222;-74
2023/05/30 04:21:11;;;;;;;19.73;7.40;;;;;;;14.13;100.00;95100.63;5049365;28;20237;-73
2023/05/30 04:23:39;;;;;;;14.00;6.97;;;;;;;13.89;100.00;95096.97;5036986;28;20244;-73
2023/05/30 04:26:06;;;;;;;16.60;6.97;;;;;;;14.12;100.00;95099.78;5027847;28;20329;-73
2023/05/30 04:28:32;;;;;;;19.73;7.30;;;;;;;14.40;100.00;95094.06;5052470;28;20259;-73
2023/05/30 04:30:58;;;;;;;19.27;7.83;;;;;;;14.47;100.00;95105.34;5033665;28;20678;-73
2023/05/30 04:33:24;;;;;;;16.30;8.90;;;;;;;14.71;100.00;95106.31;5058309;28;20257;-73
2023/05/30 04:35:50;;;;;;;19.33;8.97;;;;;;;14.83;100.00;95102.72;5031704;28;20224;-73
2023/05/30 04:38:19;;;;;;;18.00;8.97;;;;;;;14.87;100.00;95104.91;5035203;28;20899;-72
2023/05/30 04:40:49;;;;;;;14.90;8.57;;;;;;;14.81;100.00;95101.31;5041192;28;20283;-73
2023/05/30 04:43:19;;;;;;;15.20;8.30;;;;;;;14.90;100.00;95099.22;5036468;28;20743;-72
2023/05/30 04:45:49;;;;;;;14.23;8.73;;;;;;;15.04;100.00;95100.66;5046596;28;20267;-73
2023/05/30 04:48:15;;;;;;;16.53;8.20;;;;;;;15.10;100.00;95100.56;5038370;28;20234;-71
2023/05/30 04:50:46;;;;;;;13.87;8.60;;;;;;;15.22;100.00;95106.69;5045768;28;20274;-73
2023/05/30 04:53:13;;;;;;;14.40;8.27;;;;;;;15.11;100.00;95111.91;5040731;28;20308;-72
2023/05/30 04:55:39;;;;;;;12.37;8.23;;;;;;;15.23;100.00;95115.41;5035430;28;20282;-72
2023/05/30 04:58:05;;;;;;;16.73;8.57;;;;;;;15.54;100.00;95123.13;5046197;28;20221;-72
2023/05/30 05:00:30;;;;;;;18.03;9.13;;;;;;;15.57;100.00;95127.16;5039186;28;20228;-72
2023/05/30 05:02:56;;;;;;;15.73;8.87;;;;;;;15.52;100.00;95127.84;5034407;28;20217;-73
2023/05/30 05:05:21;;;;;;;15.10;9.13;;;;;;;15.59;100.00;95120.63;5035812;28;20217;-73
2023/05/30 05:07:47;;;;;;;15.30;9.33;;;;;;;15.57;100.00;95117.38;5037404;28;20236;-73
2023/05/30 05:10:12;;;;;;;18.37;9.13;;;;;;;15.36;100.00;95128.41;5030790;28;20232;-73
2023/05/30 05:12:38;;;;;;;15.80;9.17;;;;;;;15.36;100.00;95131.84;5052792;28;20225;-73
2023/05/30 05:15:03;;;;;;;18.57;9.60;;;;;;;15.31;100.00;95130.91;5035914;28;20225;-71
2023/05/30 05:17:29;;;;;;;15.10;9.10;;;;;;;15.36;100.00;95133.69;5033189;28;20225;-73
2023/05/30 05:19:54;;;;;;;14.40;8.77;;;;;;;15.24;100.00;95130.19;5048611;28;20217;-71
2023/05/30 05:22:20;;;;;;;15.47;9.30;;;;;;;15.14;100.00;95136.00;5036022;28;20255;-70
2023/05/30 05:24:45;;;;;;;17.90;9.37;;;;;;;15.23;100.00;95136.50;5053052;28;20286;-71
2023/05/30 05:27:11;;;;;;;16.27;9.63;;;;;;;15.34;100.00;95143.66;5051264;28;20303;-72
2023/05/30 05:29:37;;;;;;;18.93;10.13;;;;;;;15.50;100.00;95143.88;5051765;28;20271;-72
2023/05/30 05:32:02;;;;;;;20.97;10.63;;;;;;;15.65;100.00;95146.09;5034011;28;20229;-72
2023/05/30 05:34:28;;;;;;;21.33;10.43;;;;;;;15.65;100.00;95147.91;5034651;28;20237;-71
2023/05/30 05:36:53;;;;;;;22.77;10.83;;;;;;;15.69;100.00;95151.75;5051577;28;20713;-72
2023/05/30 05:39:19;;;;;;;20.53;10.97;;;;;;;15.77;100.00;95148.75;5045882;28;20629;-70
2023/05/30 05:41:44;;;;;;;23.03;11.00;;;;;;;15.66;100.00;95155.63;5052060;28;20294;-72
2023/05/30 05:44:10;;;;;;;19.10;10.47;;;;;;;15.75;100.00;95146.38;5051720;28;20229;-72
2023/05/30 05:46:36;;;;;;;18.77;10.97;;;;;;;15.82;100.00;95148.91;5020715;28;20293;-71
2023/05/30 05:49:02;;;;;;;23.50;11.13;;;;;;;15.90;100.00;95154.66;5048480;28;20404;-71
2023/05/30 05:51:28;;;;;;;21.30;10.87;;;;;;;15.92;100.00;95157.06;5051017;28;20628;-71
2023/05/30 05:53:53;;;;;;;27.27;11.30;;;;;;;15.92;100.00;95163.16;5052447;28;20599;-71
2023/05/30 05:56:19;;;;;;;26.23;12.23;;;;;;;15.92;100.00;95163.16;5050215;28;20307;-72
2023/05/30 05:58:45;;;;;;;22.17;12.33;;;;;;;15.93;100.00;95159.47;5048033;28;20237;-72
2023/05/30 06:01:10;;;;;;;22.17;12.30;;;;;;;15.94;100.00;95155.81;5049867;28;20279;-71
2023/05/30 06:03:36;;;;;;;24.87;11.77;;;;;;;15.97;100.00;95154.56;5050465;28;20240;-72
2023/05/30 06:06:01;;;;;;;24.00;12.30;;;;;;;16.04;100.00;95163.19;5047940;28;20232;-71
2023/05/30 06:08:27;;;;;;;28.87;13.60;;;;;;;16.08;100.00;95161.69;5051476;28;20229;-72
2023/05/30 06:10:52;;;;;;;26.03;13.77;;;;;;;16.23;100.00;95159.44;5050562;28;20241;-71
2023/05/30 06:13:18;;;;;;;27.60;13.87;;;;;;;16.22;98.82;95164.91;5050586;28;20225;-72
2023/05/30 06:15:43;;;;;;;29.37;13.13;;;;;;;16.12;98.53;95158.38;5038396;28;20251;-70
2023/05/30 06:18:08;;;;;;;22.37;13.40;;;;;;;16.41;97.83;95169.06;5053609;28;20896;-72
2023/05/30 06:20:34;;;;;;;24.47;13.50;;;;;;;16.52;99.30;95169.13;5034224;28;20229;-72
2023/05/30 06:22:59;;;;;;;29.60;12.97;;;;;;;16.60;98.73;95165.31;5053206;28;20225;-71
2023/05/30 06:25:30;;;;;;;25.30;13.27;;;;;;;16.59;98.79;95164.53;5051633;28;20233;-73
2023/05/30 06:27:55;;;;;;;32.50;13.43;;;;;;;16.54;98.26;95172.34;5043002;28;20229;-72
2023/05/30 06:30:21;;;;;;;25.50;13.33;;;;;;;16.54;97.93;95174.97;5046576;28;20230;-72
2023/05/30 06:32:46;;;;;;;24.27;12.60;;;;;;;16.42;98.61;95173.34;5030775;28;20946;-72
2023/05/30 06:35:12;;;;;;;28.20;14.17;;;;;;;16.31;98.60;95180.19;5051128;28;20604;-72
2023/05/30 06:37:37;;;;;;;24.13;13.53;;;;;;;16.46;98.36;95185.03;5053876;28;20255;-72
2023/05/30 06:40:03;;;;;;;30.77;13.87;;;;;;;16.52;98.83;95178.88;5052339;28;20221;-72
2023/05/30 06:42:28;;;;;;;31.07;14.00;;;;;;;16.43;100.00;95182.88;5057488;28;20291;-73
2023/05/30 06:44:54;;;;;;;29.30;13.77;;;;;;;16.44;98.95;95184.47;5022079;28;20336;-72
2023/05/30 06:47:19;;;;;;;32.47;13.80;;;;;;;16.47;97.34;95179.53;5053143;28;20694;-72
2023/05/30 06:49:45;;;;;;;28.23;13.03;;;;;;;16.41;99.67;95187.56;5050437;28;20313;-73
2023/05/30 06:52:10;;;;;;;32.97;13.10;;;;;;;16.35;100.00;95188.50;5051726;28;20994;-72
2023/05/30 06:54:36;;;;;;;29.97;11.97;;;;;;;16.48;98.67;95188.28;5055670;28;20224;-72
2023/05/30 06:57:04;;;;;;;33.37;12.20;;;;;;;16.54;98.23;95193.47;5032114;28;20233;-70
2023/05/30 06:59:30;;;;;;;25.70;12.10;;;;;;;16.48;99.24;95183.00;5051577;28;21187;-72
2023/05/30 07:01:55;;;;;;;33.47;12.60;;;;;;;16.57;98.86;95186.94;5018889;28;20302;-72
2023/05/30 07:04:23;;;;;;;31.63;12.43;;;;;;;16.53;99.44;95191.06;5022036;28;20233;-72
2023/05/30 07:06:48;;;;;;;28.93;12.53;;;;;;;16.58;97.75;95186.69;5024549;28;20240;-73
2023/05/30 07:09:14;;;;;;;29.50;13.10;;;;;;;16.50;97.99;95183.56;5034085;28;20313;-72
2023/05/30 07:11:39;;;;;;;29.20;12.97;;;;;;;16.59;97.29;95190.97;5035859;28;20241;-74
2023/05/30 07:14:05;;;;;;;30.13;13.33;;;;;;;16.61;98.03;95190.72;5022171;28;20240;-74
2023/05/30 07:16:31;;;;;;;29.00;12.00;;;;;;;16.68;96.73;95188.75;5043577;28;20235;-75
2023/05/30 07:18:56;;;;;;;26.73;12.33;;;;;;;16.84;97.93;95190.69;5055401;28;20302;-75
2023/05/30 07:21:22;;;;;;;32.47;12.67;;;;;;;16.69;96.44;95195.66;5044072;28;20727;-74
2023/05/30 07:23:47;;;;;;;22.53;12.13;;;;;;;16.75;97.10;95192.91;5049711;28;20229;-75
2023/05/30 07:26:13;;;;;;;26.43;13.40;;;;;;;16.98;96.90;95193.94;5032624;28;20229;-74
2023/05/30 07:28:38;;;;;;;22.17;12.60;;;;;;;17.09;95.72;95201.03;5049522;28;20255;-75
2023/05/30 07:31:04;;;;;;;21.90;12.33;;;;;;;17.21;95.29;95205.28;5031361;28;20262;-73
2023/05/30 07:33:29;;;;;;;24.17;11.47;;;;;;;17.25;94.94;95203.75;5022072;28;21116;-75
2023/05/30 07:35:55;;;;;;;23.07;11.03;;;;;;;17.23;95.82;95200.53;5019651;28;20221;-74
2023/05/30 07:38:20;;;;;;;17.40;9.50;;;;;;;17.19;93.41;95194.13;5033582;28;20217;-74
2023/05/30 07:40:46;;;;;;;21.67;9.97;;;;;;;17.36;95.18;95200.25;5034430;28;20429;-75
2023/05/30 07:43:11;;;;;;;20.17;9.43;;;;;;;17.44;95.12;95194.63;5039618;28;20910;-74
2023/05/30 07:45:37;;;;;;;17.40;9.67;;;;;;;17.54;93.75;95201.97;5030248;28;20232;-74
2023/05/30 07:48:05;;;;;;;19.07;9.60;;;;;;;17.58;93.08;95197.81;5030213;28;20233;-75
2023/05/30 07:50:30;;;;;;;15.00;8.80;;;;;;;17.64;93.73;95204.03;5032500;28;20217;-73
2023/05/30 07:52:56;;;;;;;16.17;9.07;;;;;;;17.56;93.96;95199.91;5049763;28;20275;-74
2023/05/30 07:55:21;;;;;;;22.67;9.47;;;;;;;17.65;94.51;95189.75;5046543;28;20698;-74
2023/05/30 07:57:47;;;;;;;28.47;10.30;;;;;;;17.78;95.07;95194.75;5046638;28;20249;-74
2023/05/30 08:00:13;;;;;;;20.30;9.47;;;;;;;17.82;92.12;95195.88;5023388;28;20224;-75
2023/05/30 08:02:38;;;;;;;52.27;14.10;;;;;;;18.01;94.29;95199.94;5033658;28;20308;-75
2023/05/30 08:05:04;;;;;;;21.97;9.23;;;;;;;18.06;92.61;95200.03;5031602;28;20225;-74
2023/05/30 08:07:31;;;;;;;14.27;7.50;;;;;;;18.06;91.30;95197.38;5016499;28;20237;-73
2023/05/30 08:09:57;;;;;;;16.17;7.60;;;;;;;18.05;89.12;95193.94;5026984;28;20225;-74
2023/05/30 08:12:28;;;;;;;15.83;9.37;;;;;;;18.10;89.88;95196.66;5020413;28;20241;-74
2023/05/30 08:14:54;;;;;;;11.40;6.57;;;;;;;18.15;87.50;95202.03;5053154;28;20229;-74
2023/05/30 08:17:23;;;;;;;11.37;6.03;;;;;;;18.17;88.71;95192.00;5031338;28;20233;-75
2023/05/30 08:19:50;;;;;;;12.53;6.40;;;;;;;18.18;90.33;95203.41;5046781;28;20298;-74
2023/05/30 08:22:15;;;;;;;14.03;8.27;;;;;;;18.05;93.49;95201.88;5037205;28;20238;-75
2023/05/30 08:24:41;;;;;;;14.60;7.33;;;;;;;18.15;96.04;95207.34;5051516;28;20320;-75
2023/05/30 08:27:10;;;;;;;15.50;7.70;;;;;;;18.01;95.50;95205.22;5024189;28;20797;-74
2023/05/30 08:29:36;;;;;;;14.40;7.43;;;;;;;17.99;94.92;95204.66;5039717;28;20675;-73
2023/05/30 08:32:02;;;;;;;11.87;6.87;;;;;;;17.97;96.44;95206.75;5037540;28;20228;-75
2023/05/30 08:34:27;;;;;;;13.57;7.00;;;;;;;18.06;96.47;95206.13;5014641;28;20230;-74
2023/05/30 08:36:56;;;;;;;11.70;6.30;;;;;;;18.06;94.45;95205.31;5039898;28;20233;-74
2023/05/30 08:39:22;;;;;;;15.97;6.30;;;;;;;18.02;96.52;95209.50;5021735;28;20263;-74
2023/05/30 08:41:47;;;;;;;13.90;5.97;;;;;;;18.08;96.30;95196.09;5053121;28;20229;-74
2023/05/30 08:44:12;;;;;;;8.80;4.37;;;;;;;18.06;94.95;95206.13;5054342;28;20216;-75
2023/05/30 08:46:39;;;;;;;8.03;4.17;;;;;;;18.11;94.26;95206.22;5050100;28;20341;-75
2023/05/30 08:49:05;;;;;;;6.90;4.67;;;;;;;18.18;94.98;95206.06;5024817;28;20232;-75
2023/05/30 08:51:30;;;;;;;11.13;4.60;;;;;;;18.28;94.85;95208.88;5031516;28;20257;-75
2023/05/30 08:53:57;;;;;;;6.60;4.00;;;;;;;18.03;93.47;95203.16;5034082;28;20707;-74
2023/05/30 08:56:28;;;;;;;6.47;3.60;;;;;;;18.12;95.16;95207.03;5058463;28;20259;-74
2023/05/30 08:58:53;;;;;;;8.83;3.70;;;;;;;18.07;93.15;95206.94;5014716;28;20271;-75
2023/05/30 09:01:19;;;;;;;7.50;3.67;;;;;;;18.20;93.67;95213.78;5038377;28;20233;-75
2023/05/30 09:03:45;;;;;;;6.43;3.40;;;;;;;18.22;93.99;95201.91;5040746;28;20359;-74
2023/05/30 09:06:11;;;;;;;8.03;3.70;;;;;;;18.21;94.14;95218.03;5041173;28;20244;-75
2023/05/30 09:08:37;;;;;;;7.93;3.53;;;;;;;18.09;95.03;95213.59;5038962;28;20232;-74
2023/05/30 09:11:03;;;;;;;6.40;3.43;;;;;;;18.20;94.46;95213.78;5045427;28;20221;-74
2023/05/30 09:13:28;;;;;;;5.83;3.40;;;;;;;17.94;94.82;95215.97;5041324;28;20224;-75
2023/05/30 09:15:54;;;;;;;5.33;3.10;;;;;;;18.00;95.55;95215.03;5053825;28;20228;-74
2023/05/30 09:18:19;;;;;;;6.93;3.10;;;;;;;17.97;95.22;95212.06;5054451;28;20229;-74
2023/05/30 09:20:45;;;;;;;5.70;3.23;;;;;;;17.92;93.99;95214.59;5035953;28;20252;-74
2023/05/30 09:23:10;;;;;;;5.83;3.07;;;;;;;17.90;93.56;95216.69;5050839;28;20220;-71
2023/05/30 09:25:42;;;;;;;5.50;2.80;;;;;;;18.03;93.98;95213.75;5038544;28;20229;-73
2023/05/30 09:28:07;;;;;;;4.43;3.00;;;;;;;17.97;93.19;95215.50;5063805;28;20277;-73
2023/05/30 09:30:33;;;;;;;4.77;2.77;;;;;;;18.15;93.85;95212.63;5061480;28;20225;-72
2023/05/30 09:33:02;;;;;;;5.37;2.90;;;;;;;18.18;95.97;95206.88;5035658;28;20225;-72
2023/05/30 09:35:27;;;;;;;6.00;3.20;;;;;;;18.26;94.27;95208.31;5040759;28;20278;-72
2023/05/30 09:37:53;;;;;;;3.87;2.90;;;;;;;18.30;93.63;95206.78;5032376;28;20241;-72
2023/05/30 09:40:18;;;;;;;4.97;3.00;;;;;;;18.38;94.65;95195.81;5038113;28;20706;-72
2023/05/30 09:42:49;;;;;;;5.37;2.83;;;;;;;18.39;95.02;95202.69;5053372;28;20264;-74
2023/05/30 09:45:15;;;;;;;6.20;3.00;;;;;;;18.52;94.21;95199.78;5020351;28;20226;-73
2023/05/30 09:47:45;;;;;;;6.33;3.00;;;;;;;18.52;93.87;95196.31;5027391;28;20805;-73
2023/05/30 09:50:12;;;;;;;3.17;2.67;;;;;;;18.42;90.95;95196.94;5023604;28;20236;-72
2023/05/30 09:52:38;;;;;;;4.23;2.80;;;;;;;18.42;90.64;95201.41;5052417;28;20229;-71
2023/05/30 09:55:06;;;;;;;5.77;2.90;;;;;;;18.53;91.86;95197.94;5024359;28;20610;-72
2023/05/30 09:57:38;;;;;;;6.03;3.07;;;;;;;18.43;88.94;95195.09;5038466;28;20233;-73
2023/05/30 10:00:11;;;;;;;5.07;2.80;;;;;;;18.48;89.08;95201.31;5037854;28;20220;-73
2023/05/30 10:02:40;;;;;;;6.10;3.07;;;;;;;18.54;90.54;95200.34;5045000;28;20937;-73
2023/05/30 10:05:21;;;;;;;9.27;3.30;;;;;;;18.50;91.01;95193.09;5061804;28;20224;-73
2023/05/30 10:07:48;;;;;;;4.37;3.23;;;;;;;18.69;90.07;95189.97;5018500;28;20233;-73
2023/05/30 10:10:14;;;;;;;7.17;3.80;;;;;;;18.82;91.11;95194.91;5029560;28;20260;-72
2023/05/30 10:12:41;;;;;;;6.97;3.40;;;;;;;18.87;90.67;95185.44;5038614;28;20726;-73
2023/05/30 10:15:07;;;;;;;6.77;3.40;;;;;;;18.73;89.30;95191.06;5052574;28;20228;-74
2023/05/30 10:17:33;;;;;;;6.43;3.47;;;;;;;18.90;90.28;95187.59;5042700;28;20290;-72
2023/05/30 10:20:01;;;;;;;8.47;3.40;;;;;;;18.94;92.09;95186.06;5047032;28;20309;-72
2023/05/30 10:22:29;;;;;;;6.20;3.30;;;;;;;18.90;92.33;95187.59;5041690;28;20249;-72
2023/05/30 10:24:55;;;;;;;7.50;3.53;;;;;;;18.94;91.28;95189.50;5033293;28;20282;-73
2023/05/30 10:27:31;;;;;;;5.17;3.50;;;;;;;18.92;88.18;95180.19;5044128;28;20228;-71
2023/05/30 10:30:05;;;;;;;5.23;3.40;;;;;;;18.81;86.01;95173.94;5051912;28;20224;-73
2023/05/30 10:32:38;;;;;;;4.90;3.33;;;;;;;18.89;88.71;95176.16;5021761;28;20720;-73
2023/05/30 10:35:30;;;;;;;5.43;3.43;;;;;;;19.00;85.41;95172.63;5050889;28;20235;-71
2023/05/30 10:37:55;;;;;;;5.00;3.50;;;;;;;19.02;86.05;95169.72;5046653;28;20251;-73
2023/05/30 10:40:43;;;;;;;6.13;3.10;;;;;;;19.00;86.85;95166.50;5033715;28;20761;-73
2023/05/30 10:43:15;;;;;;;7.63;3.57;;;;;;;19.08;88.01;95169.53;5047080;28;20298;-72
2023/05/30 10:45:43;;;;;;;13.33;3.40;;;;;;;19.17;88.82;95168.06;5042897;28;20797;-71
2023/05/30 10:48:21;;;;;;;10.87;3.33;;;;;;;19.28;87.13;95158.38;5061686;28;20307;-73
2023/05/30 10:50:47;;;;;;;8.23;3.70;;;;;;;19.34;87.12;95160.06;5038414;28;20282;-73
2023/05/30 10:53:18;;;;;;;8.07;3.57;;;;;;;19.35;87.09;95151.81;5028359;28;20906;-72
2023/05/30 10:55:47;;;;;;;6.60;3.80;;;;;;;19.46;87.53;95148.25;5035991;28;25211;-73
2023/05/30 10:58:41;;;;;;;5.77;3.77;;;;;;;19.54;88.39;95139.06;5037443;28;20229;-73
2023/05/30 11:01:32;;;;;;;7.87;3.80;;;;;;;19.71;87.96;95133.66;5047089;28;20232;-72
2023/05/30 11:03:57;;;;;;;9.20;3.70;;;;;;;19.72;88.96;95133.41;5052851;28;20233;-73
2023/05/30 11:06:25;;;;;;;7.37;3.50;;;;;;;19.99;84.22;95133.41;5050754;28;20229;-72
2023/05/30 11:08:54;;;;;;;4.20;3.10;;;;;;;20.17;79.93;95136.50;5024948;28;20232;-73
2023/05/30 11:11:19;;;;;;;6.23;3.37;;;;;;;20.16;81.17;95131.41;5040849;28;20233;-72
2023/05/30 11:13:49;;;;;;;7.80;3.20;;;;;;;19.96;82.31;95133.91;5034022;28;20587;-74
2023/05/30 11:16:24;;;;;;;5.33;2.70;;;;;;;19.90;81.63;95121.63;5033745;28;20229;-72
2023/05/30 11:18:55;;;;;;;3.57;2.67;;;;;;;19.86;82.42;95112.56;5055058;28;20224;-71
2023/05/30 11:21:53;;;;;;;5.87;2.90;;;;;;;20.15;82.35;95117.34;5037660;28;20259;-72